sensor_id;sensor_type;location;lat;lon;timestamp;P1;durP1;ratioP1;P2;durP2;ratioP2
80136;SDS011;69466;55.948;37.484;2023-11-22T00:00:40;9.20;;;3.97;;
80136;SDS011;69466;55.948;37.484;2023-11-22T00:03:06;9.77;;;4.47;;
80136;SDS011;69466;55.948;37.484;2023-11-22T00:05:32;11.95;;;4.30;;
80136;SDS011;69466;55.948;37.484;2023-11-22T00:07:58;11.63;;;4.85;;
80136;SDS011;69466;55.948;37.484;2023-11-22T00:10:24;10.43;;;5.65;;
80136;SDS011;69466;55.948;37.484;2023-11-22T00:12:50;14.07;;;5.40;;
80136;SDS011;69466;55.948;37.484;2023-11-22T00:15:16;8.23;;;4.22;;
80136;SDS011;69466;55.948;37.484;2023-11-22T00:17:44;12.90;;;5.45;;
80136;SDS011;69466;55.948;37.484;2023-11-22T00:20:13;10.98;;;4.55;;
80136;SDS011;69466;55.948;37.484;2023-11-22T00:22:39;10.30;;;4.88;;
80136;SDS011;69466;55.948;37.484;2023-11-22T00:25:06;10.18;;;4.82;;
80136;SDS011;69466;55.948;37.484;2023-11-22T00:27:32;11.07;;;5.93;;
80136;SDS011;69466;55.948;37.484;2023-11-22T00:29:58;10.93;;;5.50;;
80136;SDS011;69466;55.948;37.484;2023-11-22T00:32:24;13.95;;;4.95;;
80136;SDS011;69466;55.948;37.484;2023-11-22T00:34:51;9.85;;;4.20;;
80136;SDS011;69466;55.948;37.484;2023-11-22T00:37:18;11.23;;;4.72;;
80136;SDS011;69466;55.948;37.484;2023-11-22T00:39:44;11.80;;;5.05;;
80136;SDS011;69466;55.948;37.484;2023-11-22T00:42:10;13.35;;;4.72;;
80136;SDS011;69466;55.948;37.484;2023-11-22T00:44:37;10.93;;;4.43;;
80136;SDS011;69466;55.948;37.484;2023-11-22T00:47:04;10.25;;;4.70;;
80136;SDS011;69466;55.948;37.484;2023-11-22T00:49:30;12.30;;;4.70;;
80136;SDS011;69466;55.948;37.484;2023-11-22T00:51:56;9.55;;;4.90;;
80136;SDS011;69466;55.948;37.484;2023-11-22T00:54:24;10.05;;;4.70;;
80136;SDS011;69466;55.948;37.484;2023-11-22T00:56:51;11.05;;;5.00;;
80136;SDS011;69466;55.948;37.484;2023-11-22T00:59:17;9.30;;;4.53;;
80136;SDS011;69466;55.948;37.484;2023-11-22T01:01:45;10.00;;;4.63;;
80136;SDS011;69466;55.948;37.484;2023-11-22T01:04:10;11.68;;;4.68;;
80136;SDS011;69466;55.948;37.484;2023-11-22T01:06:36;9.65;;;4.18;;
80136;SDS011;69466;55.948;37.484;2023-11-22T01:09:02;10.02;;;4.45;;
80136;SDS011;69466;55.948;37.484;2023-11-22T01:11:29;10.93;;;4.43;;
80136;SDS011;69466;55.948;37.484;2023-11-22T01:13:55;8.50;;;4.00;;
80136;SDS011;69466;55.948;37.484;2023-11-22T01:16:23;12.38;;;4.68;;
80136;SDS011;69466;55.948;37.484;2023-11-22T01:18:49;10.80;;;4.97;;
80136;SDS011;69466;55.948;37.484;2023-11-22T01:21:15;10.38;;;4.60;;
80136;SDS011;69466;55.948;37.484;2023-11-22T01:23:41;10.50;;;4.63;;
80136;SDS011;69466;55.948;37.484;2023-11-22T01:26:07;9.45;;;4.65;;
80136;SDS011;69466;55.948;37.484;2023-11-22T01:28:33;10.13;;;4.57;;
80136;SDS011;69466;55.948;37.484;2023-11-22T01:31:02;8.45;;;4.30;;
80136;SDS011;69466;55.948;37.484;2023-11-22T01:33:30;7.30;;;3.38;;
80136;SDS011;69466;55.948;37.484;2023-11-22T01:35:58;8.75;;;4.10;;
80136;SDS011;69466;55.948;37.484;2023-11-22T01:38:24;8.60;;;4.45;;
80136;SDS011;69466;55.948;37.484;2023-11-22T01:40:51;10.00;;;4.00;;
80136;SDS011;69466;55.948;37.484;2023-11-22T01:43:18;10.23;;;4.57;;
80136;SDS011;69466;55.948;37.484;2023-11-22T01:45:46;6.63;;;3.38;;
80136;SDS011;69466;55.948;37.484;2023-11-22T01:48:12;7.95;;;4.47;;
80136;SDS011;69466;55.948;37.484;2023-11-22T01:50:38;7.75;;;4.15;;
80136;SDS011;69466;55.948;37.484;2023-11-22T01:53:05;8.50;;;3.35;;
80136;SDS011;69466;55.948;37.484;2023-11-22T01:55:33;7.13;;;3.75;;
80136;SDS011;69466;55.948;37.484;2023-11-22T01:58:00;6.65;;;3.88;;
80136;SDS011;69466;55.948;37.484;2023-11-22T02:00:35;8.40;;;3.58;;
80136;SDS011;69466;55.948;37.484;2023-11-22T02:03:11;7.78;;;3.58;;
80136;SDS011;69466;55.948;37.484;2023-11-22T02:05:41;7.93;;;3.42;;
80136;SDS011;69466;55.948;37.484;2023-11-22T02:08:11;7.47;;;3.35;;
80136;SDS011;69466;55.948;37.484;2023-11-22T02:10:39;7.80;;;3.15;;
80136;SDS011;69466;55.948;37.484;2023-11-22T02:13:07;7.45;;;2.95;;
80136;SDS011;69466;55.948;37.484;2023-11-22T02:15:34;6.93;;;3.25;;
80136;SDS011;69466;55.948;37.484;2023-11-22T02:18:01;5.82;;;2.83;;
80136;SDS011;69466;55.948;37.484;2023-11-22T02:20:29;7.18;;;2.85;;
80136;SDS011;69466;55.948;37.484;2023-11-22T02:22:56;6.55;;;3.10;;
80136;SDS011;69466;55.948;37.484;2023-11-22T02:25:22;7.80;;;3.65;;
80136;SDS011;69466;55.948;37.484;2023-11-22T02:27:48;9.57;;;4.50;;
80136;SDS011;69466;55.948;37.484;2023-11-22T02:30:14;9.95;;;3.50;;
80136;SDS011;69466;55.948;37.484;2023-11-22T02:32:41;7.43;;;3.28;;
80136;SDS011;69466;55.948;37.484;2023-11-22T02:35:07;7.18;;;3.28;;
80136;SDS011;69466;55.948;37.484;2023-11-22T02:37:34;6.28;;;2.65;;
80136;SDS011;69466;55.948;37.484;2023-11-22T02:40:10;8.18;;;3.38;;
80136;SDS011;69466;55.948;37.484;2023-11-22T02:42:48;9.60;;;2.75;;
80136;SDS011;69466;55.948;37.484;2023-11-22T02:45:17;5.25;;;2.65;;
80136;SDS011;69466;55.948;37.484;2023-11-22T02:47:44;5.40;;;2.53;;
80136;SDS011;69466;55.948;37.484;2023-11-22T02:50:13;10.50;;;4.32;;
80136;SDS011;69466;55.948;37.484;2023-11-22T02:52:39;16.92;;;7.85;;
80136;SDS011;69466;55.948;37.484;2023-11-22T02:55:06;8.02;;;3.40;;
80136;SDS011;69466;55.948;37.484;2023-11-22T02:57:32;8.82;;;2.80;;
80136;SDS011;69466;55.948;37.484;2023-11-22T02:59:58;6.18;;;2.70;;
80136;SDS011;69466;55.948;37.484;2023-11-22T03:02:24;9.00;;;3.70;;
80136;SDS011;69466;55.948;37.484;2023-11-22T03:04:51;7.28;;;3.13;;
80136;SDS011;69466;55.948;37.484;2023-11-22T03:07:17;7.35;;;3.10;;
80136;SDS011;69466;55.948;37.484;2023-11-22T03:09:43;6.57;;;2.70;;
80136;SDS011;69466;55.948;37.484;2023-11-22T03:12:12;7.80;;;2.83;;
80136;SDS011;69466;55.948;37.484;2023-11-22T03:14:41;8.48;;;3.40;;
80136;SDS011;69466;55.948;37.484;2023-11-22T03:17:07;7.85;;;3.28;;
80136;SDS011;69466;55.948;37.484;2023-11-22T03:19:33;9.55;;;3.15;;
80136;SDS011;69466;55.948;37.484;2023-11-22T03:22:00;8.23;;;3.38;;
80136;SDS011;69466;55.948;37.484;2023-11-22T03:24:29;11.65;;;3.22;;
80136;SDS011;69466;55.948;37.484;2023-11-22T03:26:58;9.93;;;3.60;;
80136;SDS011;69466;55.948;37.484;2023-11-22T03:29:25;8.35;;;3.17;;
80136;SDS011;69466;55.948;37.484;2023-11-22T03:31:51;6.03;;;3.13;;
80136;SDS011;69466;55.948;37.484;2023-11-22T03:34:19;7.00;;;4.00;;
80136;SDS011;69466;55.948;37.484;2023-11-22T03:36:45;9.35;;;5.05;;
80136;SDS011;69466;55.948;37.484;2023-11-22T03:39:12;6.95;;;3.10;;
80136;SDS011;69466;55.948;37.484;2023-11-22T03:41:40;10.48;;;4.53;;
80136;SDS011;69466;55.948;37.484;2023-11-22T03:44:08;9.52;;;3.70;;
80136;SDS011;69466;55.948;37.484;2023-11-22T03:46:36;8.25;;;3.28;;
80136;SDS011;69466;55.948;37.484;2023-11-22T03:49:06;7.90;;;3.28;;
80136;SDS011;69466;55.948;37.484;2023-11-22T03:51:32;9.88;;;3.25;;
80136;SDS011;69466;55.948;37.484;2023-11-22T03:53:59;9.23;;;3.42;;
80136;SDS011;69466;55.948;37.484;2023-11-22T03:56:25;8.02;;;2.97;;
80136;SDS011;69466;55.948;37.484;2023-11-22T03:58:56;7.30;;;3.35;;
80136;SDS011;69466;55.948;37.484;2023-11-22T04:01:22;6.30;;;3.13;;
80136;SDS011;69466;55.948;37.484;2023-11-22T04:03:48;5.78;;;2.78;;
80136;SDS011;69466;55.948;37.484;2023-11-22T04:06:15;7.93;;;2.58;;
80136;SDS011;69466;55.948;37.484;2023-11-22T04:08:42;7.63;;;3.00;;
80136;SDS011;69466;55.948;37.484;2023-11-22T04:11:09;6.13;;;2.72;;
80136;SDS011;69466;55.948;37.484;2023-11-22T04:13:36;7.80;;;3.10;;
80136;SDS011;69466;55.948;37.484;2023-11-22T04:16:03;5.47;;;2.40;;
80136;SDS011;69466;55.948;37.484;2023-11-22T04:18:29;5.57;;;2.35;;
80136;SDS011;69466;55.948;37.484;2023-11-22T04:20:55;5.95;;;2.00;;
80136;SDS011;69466;55.948;37.484;2023-11-22T04:23:23;6.38;;;2.40;;
80136;SDS011;69466;55.948;37.484;2023-11-22T04:25:49;6.93;;;2.22;;
80136;SDS011;69466;55.948;37.484;2023-11-22T04:28:15;6.90;;;2.72;;
80136;SDS011;69466;55.948;37.484;2023-11-22T04:30:41;6.28;;;1.98;;
80136;SDS011;69466;55.948;37.484;2023-11-22T04:33:07;7.13;;;2.97;;
80136;SDS011;69466;55.948;37.484;2023-11-22T04:35:33;7.53;;;2.17;;
80136;SDS011;69466;55.948;37.484;2023-11-22T04:38:04;6.57;;;2.00;;
80136;SDS011;69466;55.948;37.484;2023-11-22T04:40:30;5.32;;;2.33;;
80136;SDS011;69466;55.948;37.484;2023-11-22T04:42:56;7.75;;;2.42;;
80136;SDS011;69466;55.948;37.484;2023-11-22T04:45:22;5.93;;;2.10;;
80136;SDS011;69466;55.948;37.484;2023-11-22T04:47:48;5.07;;;2.13;;
80136;SDS011;69466;55.948;37.484;2023-11-22T04:50:14;5.80;;;2.35;;
80136;SDS011;69466;55.948;37.484;2023-11-22T04:52:41;5.18;;;2.35;;
80136;SDS011;69466;55.948;37.484;2023-11-22T04:55:07;11.57;;;3.05;;
80136;SDS011;69466;55.948;37.484;2023-11-22T04:57:33;11.85;;;2.20;;
80136;SDS011;69466;55.948;37.484;2023-11-22T04:59:59;3.60;;;1.85;;
80136;SDS011;69466;55.948;37.484;2023-11-22T05:02:26;6.43;;;2.08;;
80136;SDS011;69466;55.948;37.484;2023-11-22T05:04:53;4.95;;;2.45;;
80136;SDS011;69466;55.948;37.484;2023-11-22T05:07:19;5.53;;;1.55;;
80136;SDS011;69466;55.948;37.484;2023-11-22T05:09:45;3.80;;;1.40;;
80136;SDS011;69466;55.948;37.484;2023-11-22T05:12:11;4.07;;;1.40;;
80136;SDS011;69466;55.948;37.484;2023-11-22T05:14:37;4.60;;;1.70;;
80136;SDS011;69466;55.948;37.484;2023-11-22T05:17:04;3.78;;;1.70;;
80136;SDS011;69466;55.948;37.484;2023-11-22T05:19:30;3.15;;;1.23;;
80136;SDS011;69466;55.948;37.484;2023-11-22T05:21:57;3.00;;;1.50;;
80136;SDS011;69466;55.948;37.484;2023-11-22T05:24:23;5.55;;;1.50;;
80136;SDS011;69466;55.948;37.484;2023-11-22T05:26:49;4.32;;;1.42;;
80136;SDS011;69466;55.948;37.484;2023-11-22T05:29:16;4.47;;;1.70;;
80136;SDS011;69466;55.948;37.484;2023-11-22T05:31:41;5.35;;;1.50;;
80136;SDS011;69466;55.948;37.484;2023-11-22T05:34:07;12.10;;;2.42;;
80136;SDS011;69466;55.948;37.484;2023-11-22T05:36:33;3.33;;;1.42;;
80136;SDS011;69466;55.948;37.484;2023-11-22T05:38:59;4.57;;;1.55;;
80136;SDS011;69466;55.948;37.484;2023-11-22T05:41:26;4.75;;;1.20;;
80136;SDS011;69466;55.948;37.484;2023-11-22T05:43:52;3.03;;;1.10;;
80136;SDS011;69466;55.948;37.484;2023-11-22T05:46:22;9.10;;;1.98;;
80136;SDS011;69466;55.948;37.484;2023-11-22T05:48:51;3.65;;;1.00;;
80136;SDS011;69466;55.948;37.484;2023-11-22T05:51:18;3.00;;;1.10;;
80136;SDS011;69466;55.948;37.484;2023-11-22T05:53:44;2.60;;;1.00;;
80136;SDS011;69466;55.948;37.484;2023-11-22T05:56:11;3.15;;;1.20;;
80136;SDS011;69466;55.948;37.484;2023-11-22T05:58:37;4.07;;;1.05;;
80136;SDS011;69466;55.948;37.484;2023-11-22T06:01:04;2.97;;;1.15;;
80136;SDS011;69466;55.948;37.484;2023-11-22T06:03:32;2.67;;;0.95;;
80136;SDS011;69466;55.948;37.484;2023-11-22T06:05:59;3.17;;;1.00;;
80136;SDS011;69466;55.948;37.484;2023-11-22T06:08:25;3.75;;;1.15;;
80136;SDS011;69466;55.948;37.484;2023-11-22T06:10:51;2.72;;;1.00;;
80136;SDS011;69466;55.948;37.484;2023-11-22T06:13:19;2.72;;;1.20;;
80136;SDS011;69466;55.948;37.484;2023-11-22T06:15:45;3.70;;;1.33;;
80136;SDS011;69466;55.948;37.484;2023-11-22T06:18:11;2.83;;;1.20;;
80136;SDS011;69466;55.948;37.484;2023-11-22T06:20:39;4.43;;;1.48;;
80136;SDS011;69466;55.948;37.484;2023-11-22T06:23:06;4.03;;;2.15;;
80136;SDS011;69466;55.948;37.484;2023-11-22T06:25:32;4.13;;;1.50;;
80136;SDS011;69466;55.948;37.484;2023-11-22T06:27:58;2.85;;;1.02;;
80136;SDS011;69466;55.948;37.484;2023-11-22T06:30:24;3.22;;;1.10;;
80136;SDS011;69466;55.948;37.484;2023-11-22T06:32:51;2.88;;;1.40;;
80136;SDS011;69466;55.948;37.484;2023-11-22T06:35:17;7.20;;;1.58;;
80136;SDS011;69466;55.948;37.484;2023-11-22T06:37:43;7.72;;;2.22;;
80136;SDS011;69466;55.948;37.484;2023-11-22T06:40:10;5.88;;;2.45;;
80136;SDS011;69466;55.948;37.484;2023-11-22T06:42:40;3.70;;;1.65;;
80136;SDS011;69466;55.948;37.484;2023-11-22T06:45:07;4.68;;;2.30;;
80136;SDS011;69466;55.948;37.484;2023-11-22T06:47:44;3.63;;;1.45;;
80136;SDS011;69466;55.948;37.484;2023-11-22T06:50:10;3.90;;;1.52;;
80136;SDS011;69466;55.948;37.484;2023-11-22T06:52:41;3.90;;;1.63;;
80136;SDS011;69466;55.948;37.484;2023-11-22T06:55:08;3.63;;;1.42;;
80136;SDS011;69466;55.948;37.484;2023-11-22T06:57:36;3.35;;;1.20;;
80136;SDS011;69466;55.948;37.484;2023-11-22T07:00:03;4.13;;;1.58;;
80136;SDS011;69466;55.948;37.484;2023-11-22T07:02:32;3.35;;;1.00;;
80136;SDS011;69466;55.948;37.484;2023-11-22T07:04:58;5.38;;;1.58;;
80136;SDS011;69466;55.948;37.484;2023-11-22T07:07:25;9.40;;;1.77;;
80136;SDS011;69466;55.948;37.484;2023-11-22T07:09:51;4.38;;;1.80;;
80136;SDS011;69466;55.948;37.484;2023-11-22T07:12:17;4.68;;;1.45;;
80136;SDS011;69466;55.948;37.484;2023-11-22T07:14:44;3.50;;;1.30;;
80136;SDS011;69466;55.948;37.484;2023-11-22T07:17:11;6.03;;;1.92;;
80136;SDS011;69466;55.948;37.484;2023-11-22T07:19:36;4.35;;;1.52;;
80136;SDS011;69466;55.948;37.484;2023-11-22T07:22:04;4.63;;;1.70;;
80136;SDS011;69466;55.948;37.484;2023-11-22T07:24:42;5.40;;;2.00;;
80136;SDS011;69466;55.948;37.484;2023-11-22T07:27:17;5.65;;;1.83;;
80136;SDS011;69466;55.948;37.484;2023-11-22T07:29:44;4.28;;;1.60;;
80136;SDS011;69466;55.948;37.484;2023-11-22T07:32:11;5.32;;;1.67;;
80136;SDS011;69466;55.948;37.484;2023-11-22T07:34:38;4.72;;;2.20;;
80136;SDS011;69466;55.948;37.484;2023-11-22T07:37:05;6.93;;;1.80;;
80136;SDS011;69466;55.948;37.484;2023-11-22T07:39:35;4.32;;;1.60;;
80136;SDS011;69466;55.948;37.484;2023-11-22T07:42:05;6.50;;;2.45;;
80136;SDS011;69466;55.948;37.484;2023-11-22T07:44:34;4.40;;;2.40;;
80136;SDS011;69466;55.948;37.484;2023-11-22T07:47:04;5.13;;;1.75;;
80136;SDS011;69466;55.948;37.484;2023-11-22T07:49:40;4.95;;;1.90;;
80136;SDS011;69466;55.948;37.484;2023-11-22T07:52:08;4.80;;;1.50;;
80136;SDS011;69466;55.948;37.484;2023-11-22T07:54:40;4.43;;;1.42;;
80136;SDS011;69466;55.948;37.484;2023-11-22T07:57:06;5.25;;;1.50;;
80136;SDS011;69466;55.948;37.484;2023-11-22T07:59:33;3.30;;;1.13;;
80136;SDS011;69466;55.948;37.484;2023-11-22T08:01:59;4.60;;;1.67;;
80136;SDS011;69466;55.948;37.484;2023-11-22T08:04:27;2.95;;;1.20;;
80136;SDS011;69466;55.948;37.484;2023-11-22T08:06:54;5.47;;;1.58;;
80136;SDS011;69466;55.948;37.484;2023-11-22T08:09:23;3.55;;;1.45;;
80136;SDS011;69466;55.948;37.484;2023-11-22T08:11:49;4.85;;;1.63;;
80136;SDS011;69466;55.948;37.484;2023-11-22T08:14:19;3.85;;;1.35;;
80136;SDS011;69466;55.948;37.484;2023-11-22T08:16:46;3.92;;;1.45;;
80136;SDS011;69466;55.948;37.484;2023-11-22T08:19:15;4.00;;;1.60;;
80136;SDS011;69466;55.948;37.484;2023-11-22T08:21:41;3.40;;;1.17;;
80136;SDS011;69466;55.948;37.484;2023-11-22T08:24:08;3.03;;;1.25;;
80136;SDS011;69466;55.948;37.484;2023-11-22T08:26:34;4.75;;;2.08;;
80136;SDS011;69466;55.948;37.484;2023-11-22T08:29:00;6.55;;;1.88;;
80136;SDS011;69466;55.948;37.484;2023-11-22T08:31:25;3.67;;;1.50;;
80136;SDS011;69466;55.948;37.484;2023-11-22T08:33:52;3.42;;;1.20;;
80136;SDS011;69466;55.948;37.484;2023-11-22T08:36:18;3.22;;;1.40;;
80136;SDS011;69466;55.948;37.484;2023-11-22T08:38:44;3.78;;;1.38;;
80136;SDS011;69466;55.948;37.484;2023-11-22T08:41:10;3.63;;;1.45;;
80136;SDS011;69466;55.948;37.484;2023-11-22T08:43:39;2.97;;;1.10;;
80136;SDS011;69466;55.948;37.484;2023-11-22T08:46:05;3.35;;;1.40;;
80136;SDS011;69466;55.948;37.484;2023-11-22T08:48:34;2.88;;;1.23;;
80136;SDS011;69466;55.948;37.484;2023-11-22T08:51:00;4.43;;;1.42;;
80136;SDS011;69466;55.948;37.484;2023-11-22T08:53:26;3.28;;;1.10;;
80136;SDS011;69466;55.948;37.484;2023-11-22T08:55:52;4.18;;;1.95;;
80136;SDS011;69466;55.948;37.484;2023-11-22T08:58:22;3.88;;;1.42;;
80136;SDS011;69466;55.948;37.484;2023-11-22T09:00:49;4.47;;;1.38;;
80136;SDS011;69466;55.948;37.484;2023-11-22T09:03:14;3.75;;;1.52;;
80136;SDS011;69466;55.948;37.484;2023-11-22T09:05:43;3.60;;;1.25;;
80136;SDS011;69466;55.948;37.484;2023-11-22T09:08:10;3.28;;;1.58;;
80136;SDS011;69466;55.948;37.484;2023-11-22T09:10:39;5.97;;;1.70;;
80136;SDS011;69466;55.948;37.484;2023-11-22T09:13:09;3.50;;;1.70;;
80136;SDS011;69466;55.948;37.484;2023-11-22T09:15:42;3.83;;;1.73;;
80136;SDS011;69466;55.948;37.484;2023-11-22T09:18:10;4.47;;;1.48;;
80136;SDS011;69466;55.948;37.484;2023-11-22T09:20:38;4.45;;;1.88;;
80136;SDS011;69466;55.948;37.484;2023-11-22T09:23:04;3.20;;;1.30;;
80136;SDS011;69466;55.948;37.484;2023-11-22T09:25:30;5.55;;;2.17;;
80136;SDS011;69466;55.948;37.484;2023-11-22T09:27:58;4.32;;;1.73;;
80136;SDS011;69466;55.948;37.484;2023-11-22T09:30:26;5.45;;;1.85;;
80136;SDS011;69466;55.948;37.484;2023-11-22T09:33:40;6.57;;;2.50;;
80136;SDS011;69466;55.948;37.484;2023-11-22T09:36:08;4.45;;;1.70;;
80136;SDS011;69466;55.948;37.484;2023-11-22T09:38:34;3.92;;;1.50;;
80136;SDS011;69466;55.948;37.484;2023-11-22T09:41:00;3.83;;;1.70;;
80136;SDS011;69466;55.948;37.484;2023-11-22T09:43:28;4.68;;;1.58;;
80136;SDS011;69466;55.948;37.484;2023-11-22T09:45:54;3.90;;;1.45;;
80136;SDS011;69466;55.948;37.484;2023-11-22T09:48:21;9.63;;;1.65;;
80136;SDS011;69466;55.948;37.484;2023-11-22T09:53:34;3.55;;;1.33;;
80136;SDS011;69466;55.948;37.484;2023-11-22T09:56:05;3.90;;;1.60;;
80136;SDS011;69466;55.948;37.484;2023-11-22T09:58:38;6.05;;;2.00;;
80136;SDS011;69466;55.948;37.484;2023-11-22T10:01:10;8.43;;;1.73;;
80136;SDS011;69466;55.948;37.484;2023-11-22T10:03:36;5.00;;;2.00;;
80136;SDS011;69466;55.948;37.484;2023-11-22T10:06:02;4.60;;;1.95;;
80136;SDS011;69466;55.948;37.484;2023-11-22T10:08:29;3.15;;;1.60;;
80136;SDS011;69466;55.948;37.484;2023-11-22T10:10:57;3.90;;;1.63;;
80136;SDS011;69466;55.948;37.484;2023-11-22T10:13:25;3.58;;;1.70;;
80136;SDS011;69466;55.948;37.484;2023-11-22T10:15:52;4.53;;;1.70;;
80136;SDS011;69466;55.948;37.484;2023-11-22T10:18:19;5.03;;;1.80;;
80136;SDS011;69466;55.948;37.484;2023-11-22T10:20:46;6.25;;;2.13;;
80136;SDS011;69466;55.948;37.484;2023-11-22T10:23:13;5.90;;;2.00;;
80136;SDS011;69466;55.948;37.484;2023-11-22T10:25:43;6.28;;;1.80;;
80136;SDS011;69466;55.948;37.484;2023-11-22T10:28:11;6.03;;;1.77;;
80136;SDS011;69466;55.948;37.484;2023-11-22T10:30:37;4.28;;;2.10;;
80136;SDS011;69466;55.948;37.484;2023-11-22T10:33:05;4.65;;;1.60;;
80136;SDS011;69466;55.948;37.484;2023-11-22T10:35:31;4.28;;;2.10;;
80136;SDS011;69466;55.948;37.484;2023-11-22T10:38:00;4.28;;;1.90;;
80136;SDS011;69466;55.948;37.484;2023-11-22T10:40:32;6.00;;;1.92;;
80136;SDS011;69466;55.948;37.484;2023-11-22T10:42:57;5.43;;;2.83;;
80136;SDS011;69466;55.948;37.484;2023-11-22T10:45:24;5.72;;;1.85;;
80136;SDS011;69466;55.948;37.484;2023-11-22T10:47:55;5.10;;;2.10;;
80136;SDS011;69466;55.948;37.484;2023-11-22T10:50:22;4.65;;;1.95;;
80136;SDS011;69466;55.948;37.484;2023-11-22T10:52:48;6.10;;;1.80;;
80136;SDS011;69466;55.948;37.484;2023-11-22T10:55:21;5.28;;;2.13;;
80136;SDS011;69466;55.948;37.484;2023-11-22T10:57:56;5.18;;;1.70;;
80136;SDS011;69466;55.948;37.484;2023-11-22T11:00:32;5.32;;;2.05;;
80136;SDS011;69466;55.948;37.484;2023-11-22T11:03:03;5.55;;;2.05;;
80136;SDS011;69466;55.948;37.484;2023-11-22T11:05:37;3.95;;;2.00;;
80136;SDS011;69466;55.948;37.484;2023-11-22T11:08:07;4.32;;;1.50;;
80136;SDS011;69466;55.948;37.484;2023-11-22T11:10:42;4.03;;;1.80;;
80136;SDS011;69466;55.948;37.484;2023-11-22T11:13:10;6.13;;;2.53;;
80136;SDS011;69466;55.948;37.484;2023-11-22T11:15:40;5.25;;;2.30;;
80136;SDS011;69466;55.948;37.484;2023-11-22T11:18:09;5.40;;;1.95;;
80136;SDS011;69466;55.948;37.484;2023-11-22T11:23:25;7.82;;;1.90;;
80136;SDS011;69466;55.948;37.484;2023-11-22T11:25:55;6.03;;;2.08;;
80136;SDS011;69466;55.948;37.484;2023-11-22T11:28:23;6.95;;;2.60;;
80136;SDS011;69466;55.948;37.484;2023-11-22T11:30:53;5.25;;;2.22;;
80136;SDS011;69466;55.948;37.484;2023-11-22T11:33:32;5.38;;;1.70;;
80136;SDS011;69466;55.948;37.484;2023-11-22T11:36:03;4.15;;;1.73;;
80136;SDS011;69466;55.948;37.484;2023-11-22T11:38:31;3.85;;;1.70;;
80136;SDS011;69466;55.948;37.484;2023-11-22T11:41:12;6.80;;;2.20;;
80136;SDS011;69466;55.948;37.484;2023-11-22T11:43:42;4.75;;;2.13;;
80136;SDS011;69466;55.948;37.484;2023-11-22T11:46:12;3.60;;;1.53;;
80136;SDS011;69466;55.948;37.484;2023-11-22T11:48:49;5.32;;;1.60;;
80136;SDS011;69466;55.948;37.484;2023-11-22T11:51:17;3.63;;;1.50;;
80136;SDS011;69466;55.948;37.484;2023-11-22T11:53:44;5.13;;;1.92;;
80136;SDS011;69466;55.948;37.484;2023-11-22T11:56:10;3.20;;;1.42;;
80136;SDS011;69466;55.948;37.484;2023-11-22T11:58:37;3.65;;;1.48;;
80136;SDS011;69466;55.948;37.484;2023-11-22T12:01:06;3.90;;;1.50;;
80136;SDS011;69466;55.948;37.484;2023-11-22T12:03:33;9.50;;;3.38;;
80136;SDS011;69466;55.948;37.484;2023-11-22T12:06:02;6.05;;;2.22;;
80136;SDS011;69466;55.948;37.484;2023-11-22T12:08:33;6.18;;;1.88;;
80136;SDS011;69466;55.948;37.484;2023-11-22T12:11:02;4.93;;;1.70;;
80136;SDS011;69466;55.948;37.484;2023-11-22T12:13:33;4.78;;;1.65;;
80136;SDS011;69466;55.948;37.484;2023-11-22T12:16:00;4.32;;;2.10;;
80136;SDS011;69466;55.948;37.484;2023-11-22T12:18:28;5.30;;;1.92;;
80136;SDS011;69466;55.948;37.484;2023-11-22T12:20:58;5.68;;;2.20;;
80136;SDS011;69466;55.948;37.484;2023-11-22T12:23:25;10.20;;;3.38;;
80136;SDS011;69466;55.948;37.484;2023-11-22T12:25:58;3.80;;;1.50;;
80136;SDS011;69466;55.948;37.484;2023-11-22T12:28:28;5.30;;;1.52;;
80136;SDS011;69466;55.948;37.484;2023-11-22T12:31:11;4.10;;;1.40;;
80136;SDS011;69466;55.948;37.484;2023-11-22T12:33:42;4.55;;;1.50;;
80136;SDS011;69466;55.948;37.484;2023-11-22T12:36:11;2.90;;;1.17;;
80136;SDS011;69466;55.948;37.484;2023-11-22T12:38:42;3.92;;;1.63;;
80136;SDS011;69466;55.948;37.484;2023-11-22T12:41:08;4.47;;;2.10;;
80136;SDS011;69466;55.948;37.484;2023-11-22T12:43:34;3.30;;;1.50;;
80136;SDS011;69466;55.948;37.484;2023-11-22T12:46:04;5.05;;;2.08;;
80136;SDS011;69466;55.948;37.484;2023-11-22T12:48:39;4.72;;;1.88;;
80136;SDS011;69466;55.948;37.484;2023-11-22T12:51:15;5.28;;;1.90;;
80136;SDS011;69466;55.948;37.484;2023-11-22T12:53:45;7.68;;;1.77;;
80136;SDS011;69466;55.948;37.484;2023-11-22T12:56:12;4.82;;;2.13;;
80136;SDS011;69466;55.948;37.484;2023-11-22T12:58:38;6.53;;;2.55;;
80136;SDS011;69466;55.948;37.484;2023-11-22T13:01:04;5.22;;;2.20;;
80136;SDS011;69466;55.948;37.484;2023-11-22T13:03:30;5.65;;;2.50;;
80136;SDS011;69466;55.948;37.484;2023-11-22T13:05:57;4.95;;;1.80;;
80136;SDS011;69466;55.948;37.484;2023-11-22T13:08:23;5.97;;;2.17;;
80136;SDS011;69466;55.948;37.484;2023-11-22T13:10:54;3.78;;;1.70;;
80136;SDS011;69466;55.948;37.484;2023-11-22T13:13:24;5.25;;;2.13;;
80136;SDS011;69466;55.948;37.484;2023-11-22T13:15:53;4.60;;;2.00;;
80136;SDS011;69466;55.948;37.484;2023-11-22T13:18:20;4.28;;;1.90;;
80136;SDS011;69466;55.948;37.484;2023-11-22T13:20:47;5.10;;;2.40;;
80136;SDS011;69466;55.948;37.484;2023-11-22T13:23:13;4.72;;;2.08;;
80136;SDS011;69466;55.948;37.484;2023-11-22T13:25:40;6.25;;;2.70;;
80136;SDS011;69466;55.948;37.484;2023-11-22T13:28:10;7.68;;;2.80;;
80136;SDS011;69466;55.948;37.484;2023-11-22T13:30:36;5.25;;;2.40;;
80136;SDS011;69466;55.948;37.484;2023-11-22T13:33:03;6.85;;;2.53;;
80136;SDS011;69466;55.948;37.484;2023-11-22T13:35:29;6.57;;;2.67;;
80136;SDS011;69466;55.948;37.484;2023-11-22T13:38:00;5.60;;;2.33;;
80136;SDS011;69466;55.948;37.484;2023-11-22T13:40:28;5.38;;;2.13;;
80136;SDS011;69466;55.948;37.484;2023-11-22T13:42:57;5.07;;;2.45;;
80136;SDS011;69466;55.948;37.484;2023-11-22T13:45:23;5.43;;;2.10;;
80136;SDS011;69466;55.948;37.484;2023-11-22T13:47:51;9.40;;;3.03;;
80136;SDS011;69466;55.948;37.484;2023-11-22T13:50:26;7.35;;;2.55;;
80136;SDS011;69466;55.948;37.484;2023-11-22T13:52:54;7.13;;;2.70;;
80136;SDS011;69466;55.948;37.484;2023-11-22T13:55:22;7.22;;;2.65;;
80136;SDS011;69466;55.948;37.484;2023-11-22T13:57:49;5.85;;;2.85;;
80136;SDS011;69466;55.948;37.484;2023-11-22T14:00:24;9.47;;;3.00;;
80136;SDS011;69466;55.948;37.484;2023-11-22T14:02:57;7.70;;;2.80;;
80136;SDS011;69466;55.948;37.484;2023-11-22T14:05:30;8.07;;;2.92;;
80136;SDS011;69466;55.948;37.484;2023-11-22T14:07:56;6.43;;;2.65;;
80136;SDS011;69466;55.948;37.484;2023-11-22T14:10:22;9.13;;;3.03;;
80136;SDS011;69466;55.948;37.484;2023-11-22T14:12:49;8.27;;;4.07;;
80136;SDS011;69466;55.948;37.484;2023-11-22T14:15:16;9.93;;;3.58;;
80136;SDS011;69466;55.948;37.484;2023-11-22T14:17:42;7.82;;;3.55;;
80136;SDS011;69466;55.948;37.484;2023-11-22T14:20:10;9.50;;;3.88;;
80136;SDS011;69466;55.948;37.484;2023-11-22T14:22:40;8.57;;;3.80;;
80136;SDS011;69466;55.948;37.484;2023-11-22T14:25:08;11.70;;;4.68;;
80136;SDS011;69466;55.948;37.484;2023-11-22T14:27:38;9.90;;;3.75;;
80136;SDS011;69466;55.948;37.484;2023-11-22T14:30:08;9.85;;;4.15;;
80136;SDS011;69466;55.948;37.484;2023-11-22T14:32:36;9.77;;;4.10;;
80136;SDS011;69466;55.948;37.484;2023-11-22T14:35:03;12.55;;;5.13;;
80136;SDS011;69466;55.948;37.484;2023-11-22T14:37:31;10.50;;;4.47;;
80136;SDS011;69466;55.948;37.484;2023-11-22T14:40:00;11.25;;;5.20;;
80136;SDS011;69466;55.948;37.484;2023-11-22T14:42:29;15.00;;;5.30;;